Christian Sabionski

Kontakt

Geschäftsführer

Adresse:
Meisenweg 8
D-85232 Feldgeding

Telefon: +49 (0)172 8140311

Kontaktformular

Eine E-Mail senden. Alle mit * markierten Felder werden benötigt.

Flugwetter Augsburg

[source: ADDS]
METAR
EDMA 190150Z AUTO 11003KT 9999 // BKN051/// OVC060/// 11/11 Q1014 =
TAF EDMA 181700Z 1818/1903 27006KT CAVOK BECMG 1818/1820 19004KT
TAF
TAF EDMA 181700Z 1818/1903 27006KT CAVOK BECMG 1818/1820 19004KT =
Cookies erleichtern die Bereitstellung unserer Dienste. Mit der Nutzung unserer Dienste erklären Sie sich damit einverstanden, dass wir Cookies verwenden.
Weitere Informationen Ok